Time;durP1;ratioP1;P1;durP2;ratioP2;P2;SDS_P1;SDS_P2;PMS_P1;PMS_P2;Temp;Humidity;BMP_temperature;BMP_pressure;BME280_temperature;BME280_humidity;BME280_pressure;Samples;Min_cycle;Max_cycle;Signal;HPM_P1;HPM_P2
2022/04/18 00:02:02;;;;;;;72.43;5.85;;;;;;;;;;5092847;28;20243;-72
2022/04/18 00:04:29;;;;;;;62.42;4.85;;;;;;;;;;5092280;28;20296;-72
2022/04/18 00:06:56;;;;;;;61.78;4.30;;;;;;;;;;5092373;28;20208;-72
2022/04/18 00:09:23;;;;;;;78.90;5.57;;;;;;;;;;5091446;28;20792;-72
2022/04/18 00:11:50;;;;;;;64.32;5.03;;;;;;;;;;5092251;28;20210;-72
2022/04/18 00:14:17;;;;;;;62.40;5.80;;;;;;;;;;5092044;28;20722;-72
2022/04/18 00:16:46;;;;;;;61.95;4.97;;;;;;;;;;5091982;28;20210;-72
2022/04/18 00:19:13;;;;;;;62.05;5.85;;;;;;;;;;5091358;28;20224;-71
2022/04/18 00:21:40;;;;;;;61.70;4.80;;;;;;;;;;5092454;28;20206;-72
2022/04/18 00:24:08;;;;;;;62.17;5.72;;;;;;;;;;5092074;28;20200;-72
2022/04/18 00:26:37;;;;;;;60.22;4.97;;;;;;;;;;5091921;28;20208;-72
2022/04/18 00:29:04;;;;;;;60.10;4.57;;;;;;;;;;5091234;28;20720;-72
2022/04/18 00:31:31;;;;;;;59.42;3.55;;;;;;;;;;5091784;28;20290;-72
2022/04/18 00:33:59;;;;;;;62.25;4.70;;;;;;;;;;5091658;28;20220;-72
2022/04/18 00:36:27;;;;;;;59.42;3.38;;;;;;;;;;5092341;28;20291;-71
2022/04/18 00:38:54;;;;;;;59.35;4.00;;;;;;;;;;5091211;28;20646;-72
2022/04/18 00:41:21;;;;;;;58.78;3.33;;;;;;;;;;5091845;28;20204;-72
2022/04/18 00:43:49;;;;;;;59.40;3.90;;;;;;;;;;5091767;28;20200;-71
2022/04/18 00:46:17;;;;;;;58.88;3.30;;;;;;;;;;5091741;28;20212;-72
2022/04/18 00:48:45;;;;;;;60.10;3.55;;;;;;;;;;5090879;28;20238;-72
2022/04/18 00:51:15;;;;;;;58.83;3.40;;;;;;;;;;5091850;28;20308;-72
2022/04/18 00:53:44;;;;;;;58.88;3.40;;;;;;;;;;5091533;28;20224;-71
2022/04/18 00:56:13;;;;;;;59.58;4.00;;;;;;;;;;5091700;28;20208;-72
2022/04/18 00:58:42;;;;;;;58.97;3.45;;;;;;;;;;5090935;28;20275;-72
2022/04/18 01:01:09;;;;;;;59.10;3.90;;;;;;;;;;5091786;28;20291;-71
2022/04/18 01:03:36;;;;;;;59.10;3.13;;;;;;;;;;5091597;28;20244;-72
2022/04/18 01:06:04;;;;;;;59.38;3.55;;;;;;;;;;5091626;28;20205;-71
2022/04/18 01:08:33;;;;;;;58.78;3.22;;;;;;;;;;5090859;28;20251;-71
2022/04/18 01:11:01;;;;;;;63.97;3.42;;;;;;;;;;5091141;28;20200;-71
2022/04/18 01:13:28;;;;;;;58.90;3.33;;;;;;;;;;5091634;28;20232;-72
2022/04/18 01:15:56;;;;;;;58.88;3.47;;;;;;;;;;5092055;28;20218;-71
2022/04/18 01:18:23;;;;;;;58.90;3.15;;;;;;;;;;5095045;28;20320;-72
2022/04/18 01:20:52;;;;;;;58.97;3.40;;;;;;;;;;5095321;28;20250;-72
2022/04/18 01:23:19;;;;;;;59.10;3.50;;;;;;;;;;5095288;28;20204;-72
2022/04/18 01:31:15;;;;;;;58.15;2.65;;;;;;;;;;5095361;28;20563;-72
2022/04/18 01:33:43;;;;;;;60.58;3.58;;;;;;;;;;5094931;28;20731;-72
2022/04/18 01:36:11;;;;;;;58.92;3.55;;;;;;;;;;5095034;28;20295;-72
2022/04/18 01:38:38;;;;;;;58.47;2.70;;;;;;;;;;5094501;28;20228;-72
2022/04/18 01:41:05;;;;;;;58.88;3.08;;;;;;;;;;5095044;28;20375;-72
2022/04/18 01:43:32;;;;;;;59.45;3.63;;;;;;;;;;5091586;28;20196;-72
2022/04/18 01:46:00;;;;;;;58.58;3.10;;;;;;;;;;5095155;28;20562;-72
2022/04/18 01:48:27;;;;;;;58.58;3.17;;;;;;;;;;5094123;28;20232;-72
2022/04/18 01:50:54;;;;;;;59.85;3.38;;;;;;;;;;5094856;28;20208;-72
2022/04/18 01:53:23;;;;;;;58.75;3.45;;;;;;;;;;5094771;28;20204;-72
2022/04/18 01:55:50;;;;;;;58.90;3.20;;;;;;;;;;5094748;28;20215;-72
2022/04/18 01:58:17;;;;;;;59.40;3.90;;;;;;;;;;5093703;28;20235;-70
2022/04/18 02:00:44;;;;;;;59.10;3.40;;;;;;;;;;5094581;28;20504;-72
2022/04/18 02:03:11;;;;;;;58.60;3.10;;;;;;;;;;5094681;28;20299;-72
2022/04/18 02:05:39;;;;;;;58.95;3.00;;;;;;;;;;5094625;28;20231;-72
2022/04/18 02:08:06;;;;;;;58.58;3.10;;;;;;;;;;5093760;28;20232;-72
2022/04/18 02:10:35;;;;;;;58.50;2.80;;;;;;;;;;5094379;28;20208;-72
2022/04/18 02:13:02;;;;;;;58.70;3.20;;;;;;;;;;5094242;28;20211;-72
2022/04/18 02:15:29;;;;;;;58.38;2.72;;;;;;;;;;5094493;28;20220;-72
2022/04/18 02:17:57;;;;;;;58.55;3.00;;;;;;;;;;5093542;28;20307;-72
2022/04/18 02:20:24;;;;;;;58.55;2.65;;;;;;;;;;5094331;28;20207;-72
2022/04/18 02:22:51;;;;;;;58.53;2.95;;;;;;;;;;5094180;28;20311;-72
2022/04/18 02:25:19;;;;;;;58.88;3.50;;;;;;;;;;5093976;28;20216;-72
2022/04/18 02:27:48;;;;;;;60.03;4.95;;;;;;;;;;5092249;28;20254;-72
2022/04/18 02:30:16;;;;;;;58.55;2.90;;;;;;;;;;5094260;28;20321;-72
2022/04/18 02:32:49;;;;;;;59.78;3.05;;;;;;;;;;5094059;28;20204;-72
2022/04/18 02:35:17;;;;;;;58.55;3.22;;;;;;;;;;5094044;28;20211;-72
2022/04/18 02:37:44;;;;;;;58.33;3.08;;;;;;;;;;5093065;28;20291;-72
2022/04/18 02:40:12;;;;;;;58.47;2.85;;;;;;;;;;5093838;28;20752;-72
2022/04/18 02:42:39;;;;;;;58.60;3.10;;;;;;;;;;5093866;28;20204;-72
2022/04/18 02:45:08;;;;;;;58.33;3.05;;;;;;;;;;5093624;28;20224;-72
2022/04/18 02:47:35;;;;;;;58.58;3.10;;;;;;;;;;5093028;28;20204;-72
2022/04/18 02:50:03;;;;;;;58.65;3.08;;;;;;;;;;5094437;28;20216;-72
2022/04/18 02:52:30;;;;;;;58.47;2.80;;;;;;;;;;5093823;28;20672;-72
2022/04/18 02:54:57;;;;;;;58.45;2.80;;;;;;;;;;5093797;28;20752;-72
2022/04/18 02:57:24;;;;;;;58.45;2.85;;;;;;;;;;5093192;28;20204;-72
2022/04/18 02:59:51;;;;;;;58.42;2.65;;;;;;;;;;5093651;28;20231;-72
2022/04/18 03:02:20;;;;;;;58.58;3.10;;;;;;;;;;5093699;28;20208;-72
2022/04/18 03:04:47;;;;;;;58.47;3.17;;;;;;;;;;5093142;28;20230;-72
2022/04/18 03:07:14;;;;;;;58.67;3.10;;;;;;;;;;5092833;28;20200;-72
2022/04/18 03:09:41;;;;;;;58.38;2.83;;;;;;;;;;5093381;28;20224;-72
2022/04/18 03:12:09;;;;;;;58.60;2.80;;;;;;;;;;5093454;28;20660;-72
2022/04/18 03:14:36;;;;;;;58.10;2.80;;;;;;;;;;5093244;28;20257;-72
2022/04/18 03:17:03;;;;;;;58.20;2.67;;;;;;;;;;5093152;28;20217;-72
2022/04/18 03:19:32;;;;;;;58.45;2.97;;;;;;;;;;5092323;28;20307;-72
2022/04/18 03:22:00;;;;;;;58.25;2.90;;;;;;;;;;5092981;28;20756;-72
2022/04/18 03:24:27;;;;;;;58.50;3.20;;;;;;;;;;5093013;28;20707;-72
2022/04/18 03:26:54;;;;;;;58.38;2.97;;;;;;;;;;5092824;28;20749;-72
2022/04/18 03:29:21;;;;;;;58.30;3.03;;;;;;;;;;5092095;28;20755;-72
2022/04/18 03:31:49;;;;;;;58.47;2.88;;;;;;;;;;5092849;28;20210;-72
2022/04/18 03:34:17;;;;;;;58.30;3.17;;;;;;;;;;5092757;28;20200;-72
2022/04/18 03:42:14;;;;;;;58.47;3.00;;;;;;;;;;5092643;28;20196;-72
2022/04/18 03:44:43;;;;;;;58.28;2.80;;;;;;;;;;5092787;28;20231;-72
2022/04/18 03:47:11;;;;;;;58.25;2.90;;;;;;;;;;5092123;28;20204;-72
2022/04/18 03:49:38;;;;;;;58.38;2.75;;;;;;;;;;5092505;28;20236;-72
2022/04/18 03:52:08;;;;;;;58.70;3.63;;;;;;;;;;5092596;28;20659;-72
2022/04/18 03:54:35;;;;;;;57.92;3.20;;;;;;;;;;5092409;28;20287;-72
2022/04/18 03:57:03;;;;;;;58.58;3.65;;;;;;;;;;5092260;28;20204;-72
2022/04/18 03:59:30;;;;;;;58.60;2.92;;;;;;;;;;5091945;28;20569;-72
2022/04/18 04:01:57;;;;;;;58.28;2.80;;;;;;;;;;5092482;28;20659;-72
2022/04/18 04:04:24;;;;;;;58.20;3.03;;;;;;;;;;5092270;28;20216;-72
2022/04/18 04:06:51;;;;;;;58.25;3.03;;;;;;;;;;5092324;28;20244;-72
2022/04/18 04:09:20;;;;;;;58.65;3.30;;;;;;;;;;5091435;28;20742;-72
2022/04/18 04:11:47;;;;;;;58.47;3.30;;;;;;;;;;5092183;28;20204;-72
2022/04/18 04:14:15;;;;;;;58.33;2.90;;;;;;;;;;5092256;28;20295;-72
2022/04/18 04:16:42;;;;;;;58.85;3.45;;;;;;;;;;5092275;28;20211;-72
2022/04/18 04:19:09;;;;;;;58.70;3.45;;;;;;;;;;5091426;28;20234;-72
2022/04/18 04:21:36;;;;;;;58.67;3.35;;;;;;;;;;5092127;28;20299;-72
2022/04/18 04:24:04;;;;;;;58.90;3.30;;;;;;;;;;5091712;28;20204;-72
2022/04/18 04:26:32;;;;;;;58.45;2.95;;;;;;;;;;5092190;28;20227;-72
2022/04/18 04:28:59;;;;;;;58.92;3.72;;;;;;;;;;5091374;28;20712;-72
2022/04/18 04:31:26;;;;;;;58.58;3.65;;;;;;;;;;5092069;28;20302;-73
2022/04/18 04:33:54;;;;;;;58.78;3.30;;;;;;;;;;5091966;28;20204;-72
2022/04/18 04:36:21;;;;;;;58.25;2.85;;;;;;;;;;5091871;28;20277;-72
2022/04/18 04:38:49;;;;;;;58.30;2.92;;;;;;;;;;5091094;28;20310;-73
2022/04/18 04:41:16;;;;;;;58.22;2.80;;;;;;;;;;5091824;28;20299;-72
2022/04/18 04:43:44;;;;;;;58.58;3.22;;;;;;;;;;5091788;28;20204;-72
2022/04/18 04:46:12;;;;;;;58.42;3.10;;;;;;;;;;5091719;28;20704;-73
2022/04/18 04:48:39;;;;;;;58.55;3.10;;;;;;;;;;5090885;28;20320;-72
2022/04/18 04:51:07;;;;;;;58.72;3.13;;;;;;;;;;5092650;28;20295;-72
2022/04/18 04:53:34;;;;;;;58.10;2.78;;;;;;;;;;5096012;28;20204;-72
2022/04/18 04:56:01;;;;;;;58.55;2.80;;;;;;;;;;5096010;28;20207;-72
2022/04/18 04:58:28;;;;;;;58.38;3.10;;;;;;;;;;5095021;28;20730;-72
2022/04/18 05:00:57;;;;;;;58.13;2.95;;;;;;;;;;5095832;28;20257;-72
2022/04/18 05:03:24;;;;;;;58.65;2.72;;;;;;;;;;5095721;28;20208;-72
2022/04/18 05:05:51;;;;;;;58.55;3.00;;;;;;;;;;5095816;28;20278;-72
2022/04/18 05:08:18;;;;;;;58.58;2.92;;;;;;;;;;5095011;28;20670;-72
2022/04/18 05:10:45;;;;;;;57.97;2.80;;;;;;;;;;5095743;28;20292;-72
2022/04/18 05:13:12;;;;;;;58.08;2.65;;;;;;;;;;5095493;28;20204;-72
2022/04/18 05:15:40;;;;;;;58.20;2.80;;;;;;;;;;5095432;28;20239;-72
2022/04/18 05:18:08;;;;;;;59.75;3.60;;;;;;;;;;5094617;28;20310;-72
2022/04/18 05:20:35;;;;;;;58.35;2.90;;;;;;;;;;5095415;28;20268;-72
2022/04/18 05:23:03;;;;;;;58.40;3.03;;;;;;;;;;5095263;28;20296;-72
2022/04/18 05:25:30;;;;;;;57.90;2.78;;;;;;;;;;5095219;28;20712;-72
2022/04/18 05:27:57;;;;;;;58.25;2.65;;;;;;;;;;5094613;28;20290;-72
2022/04/18 05:30:24;;;;;;;58.05;2.60;;;;;;;;;;5095251;28;20573;-72
2022/04/18 05:32:52;;;;;;;58.28;2.67;;;;;;;;;;5095058;28;20635;-72
2022/04/18 05:35:21;;;;;;;58.05;2.80;;;;;;;;;;5095268;28;20258;-72
2022/04/18 05:37:48;;;;;;;58.83;3.58;;;;;;;;;;5094210;28;20208;-72
2022/04/18 05:40:15;;;;;;;58.60;3.10;;;;;;;;;;5095124;28;20240;-72
2022/04/18 05:42:42;;;;;;;59.03;2.90;;;;;;;;;;5094977;28;20204;-72
2022/04/18 05:45:10;;;;;;;58.20;2.70;;;;;;;;;;5090420;28;20220;-72
2022/04/18 05:47:37;;;;;;;58.88;3.25;;;;;;;;;;5084554;28;20291;-72
2022/04/18 05:50:04;;;;;;;58.28;2.65;;;;;;;;;;5083900;28;20216;-73
2022/04/18 05:52:33;;;;;;;58.20;2.47;;;;;;;;;;5088086;28;20197;-72
2022/04/18 05:55:00;;;;;;;58.15;2.65;;;;;;;;;;5090697;28;20197;-72
2022/04/18 05:57:27;;;;;;;58.08;2.80;;;;;;;;;;5091821;28;20831;-72
2022/04/18 05:59:54;;;;;;;58.17;2.70;;;;;;;;;;5090834;28;20230;-72
2022/04/18 06:02:21;;;;;;;58.30;2.70;;;;;;;;;;5094317;28;20196;-72
2022/04/18 06:04:49;;;;;;;58.28;2.95;;;;;;;;;;5094383;28;20764;-72
2022/04/18 06:07:16;;;;;;;58.45;2.97;;;;;;;;;;5093783;28;20294;-72
2022/04/18 06:09:44;;;;;;;58.25;2.47;;;;;;;;;;5088090;28;20216;-72
2022/04/18 06:12:11;;;;;;;58.78;4.28;;;;;;;;;;5094081;28;20574;-72
2022/04/18 06:14:39;;;;;;;59.13;4.43;;;;;;;;;;5094479;28;20255;-72
2022/04/18 06:17:06;;;;;;;58.50;3.00;;;;;;;;;;5094186;28;20200;-72
2022/04/18 06:19:33;;;;;;;58.20;2.70;;;;;;;;;;5091582;28;20227;-72
2022/04/18 06:22:01;;;;;;;58.08;2.80;;;;;;;;;;5093365;28;20736;-73
2022/04/18 06:24:28;;;;;;;58.35;2.70;;;;;;;;;;5081291;28;20212;-72
2022/04/18 06:26:56;;;;;;;58.08;2.85;;;;;;;;;;5080467;28;20204;-72
2022/04/18 06:29:23;;;;;;;58.30;2.90;;;;;;;;;;5089841;28;20216;-72
2022/04/18 06:31:53;;;;;;;58.28;2.90;;;;;;;;;;5094097;28;20219;-72
2022/04/18 06:34:20;;;;;;;58.38;3.20;;;;;;;;;;5088531;28;20196;-73
2022/04/18 06:36:47;;;;;;;58.17;2.50;;;;;;;;;;5089865;28;20203;-71
2022/04/18 06:39:15;;;;;;;58.08;2.40;;;;;;;;;;5092094;28;20565;-71
2022/04/18 06:41:42;;;;;;;58.28;2.90;;;;;;;;;;5093663;28;20207;-71
2022/04/18 06:44:10;;;;;;;58.08;2.40;;;;;;;;;;5091454;28;20296;-71
2022/04/18 06:46:38;;;;;;;58.17;2.60;;;;;;;;;;5088786;28;20390;-71
2022/04/18 06:49:05;;;;;;;58.08;2.65;;;;;;;;;;5073136;28;20595;-71
2022/04/18 06:51:32;;;;;;;58.38;3.13;;;;;;;;;;5079612;28;20200;-71
2022/04/18 06:53:59;;;;;;;58.22;2.63;;;;;;;;;;5093217;28;20677;-71
2022/04/18 06:59:12;;;;;;;60.13;3.80;;;;;;;;;;5090861;28;20227;-71
2022/04/18 07:01:40;;;;;;;57.97;2.70;;;;;;;;;;5092604;28;20295;-71
2022/04/18 07:04:08;;;;;;;58.08;2.85;;;;;;;;;;5085476;28;20595;-71
2022/04/18 07:06:35;;;;;;;58.05;2.45;;;;;;;;;;5093131;28;20220;-71
2022/04/18 07:09:03;;;;;;;58.17;2.70;;;;;;;;;;5077463;28;20332;-71
2022/04/18 07:11:30;;;;;;;58.05;2.45;;;;;;;;;;5092972;28;20723;-72
2022/04/18 07:13:57;;;;;;;58.28;2.70;;;;;;;;;;5092396;28;20214;-71
2022/04/18 07:16:29;;;;;;;58.38;2.80;;;;;;;;;;5089709;28;20284;-72
2022/04/18 07:18:56;;;;;;;58.78;2.90;;;;;;;;;;5092215;28;20637;-72
2022/04/18 07:21:24;;;;;;;58.60;3.28;;;;;;;;;;5093245;28;20204;-72
2022/04/18 07:23:51;;;;;;;58.25;2.72;;;;;;;;;;5086092;28;20288;-70
2022/04/18 07:26:18;;;;;;;58.80;3.72;;;;;;;;;;5092792;28;20223;-72
2022/04/18 07:28:45;;;;;;;58.33;2.80;;;;;;;;;;5088968;28;20303;-72
2022/04/18 07:31:12;;;;;;;58.10;2.60;;;;;;;;;;5084115;28;20301;-71
2022/04/18 07:33:41;;;;;;;58.47;2.88;;;;;;;;;;5089425;28;20634;-72
2022/04/18 07:36:08;;;;;;;58.30;2.60;;;;;;;;;;5091560;28;20201;-72
2022/04/18 07:38:51;;;;;;;58.28;2.40;;;;;;;;;;5086927;28;20459;-72
2022/04/18 07:41:18;;;;;;;57.83;2.40;;;;;;;;;;5072260;28;20255;-71
2022/04/18 07:43:45;;;;;;;58.20;2.70;;;;;;;;;;5072362;28;20449;-72
2022/04/18 07:46:13;;;;;;;59.67;3.23;;;;;;;;;;5072104;28;20846;-72
2022/04/18 07:48:41;;;;;;;58.27;2.90;;;;;;;;;;5071376;28;20501;-72
2022/04/18 07:53:53;;;;;;;58.17;2.87;;;;;;;;;;5072187;28;20551;-72
2022/04/18 07:56:21;;;;;;;58.23;2.63;;;;;;;;;;5072110;28;20507;-72
2022/04/18 07:58:48;;;;;;;57.93;2.37;;;;;;;;;;5071613;28;20481;-73
2022/04/18 08:01:15;;;;;;;57.97;2.50;;;;;;;;;;5072492;28;20454;-72
2022/04/18 08:03:44;;;;;;;58.33;2.90;;;;;;;;;;5072206;28;20541;-72
2022/04/18 08:06:11;;;;;;;58.17;2.70;;;;;;;;;;5072046;28;20566;-72
2022/04/18 08:08:38;;;;;;;58.03;2.53;;;;;;;;;;5071305;28;20717;-72
2022/04/18 08:11:05;;;;;;;58.17;2.80;;;;;;;;;;5071937;28;20450;-72
2022/04/18 08:13:33;;;;;;;58.27;2.57;;;;;;;;;;5071887;28;20544;-72
2022/04/18 08:16:00;;;;;;;57.93;2.53;;;;;;;;;;5072159;28;20980;-72
2022/04/18 08:18:27;;;;;;;58.30;2.97;;;;;;;;;;5071168;28;21025;-72
2022/04/18 08:20:55;;;;;;;57.77;2.60;;;;;;;;;;5071877;28;20540;-72
2022/04/18 08:23:23;;;;;;;58.50;2.80;;;;;;;;;;5071841;28;20449;-73
2022/04/18 08:25:50;;;;;;;58.27;2.90;;;;;;;;;;5071625;28;20516;-72
2022/04/18 08:28:17;;;;;;;57.93;2.60;;;;;;;;;;5070996;28;21007;-72
2022/04/18 08:30:44;;;;;;;58.10;2.70;;;;;;;;;;5071783;28;20549;-72
2022/04/18 08:33:12;;;;;;;57.97;2.30;;;;;;;;;;5071832;28;20484;-72
2022/04/18 08:35:40;;;;;;;58.17;2.50;;;;;;;;;;5071636;28;20962;-72
2022/04/18 08:38:08;;;;;;;57.97;2.90;;;;;;;;;;5070889;28;20901;-73
2022/04/18 08:40:36;;;;;;;58.10;2.47;;;;;;;;;;5071895;28;20453;-72
2022/04/18 08:43:03;;;;;;;57.87;2.60;;;;;;;;;;5071714;28;20450;-72
2022/04/18 08:45:30;;;;;;;57.67;2.47;;;;;;;;;;5071624;28;20483;-72
2022/04/18 08:53:30;;;;;;;58.00;2.60;;;;;;;;;;5071568;28;20567;-72
2022/04/18 08:55:58;;;;;;;58.17;2.50;;;;;;;;;;5071545;28;20443;-72
2022/04/18 08:58:27;;;;;;;58.40;2.70;;;;;;;;;;5070705;28;20553;-73
2022/04/18 09:00:54;;;;;;;58.07;2.57;;;;;;;;;;5071447;28;20878;-73
2022/04/18 09:03:21;;;;;;;59.57;2.80;;;;;;;;;;5071190;28;20545;-72
2022/04/18 09:05:49;;;;;;;58.17;2.80;;;;;;;;;;5071336;28;20569;-72
2022/04/18 09:08:16;;;;;;;57.47;2.50;;;;;;;;;;5070980;28;20502;-73
2022/04/18 09:10:50;;;;;;;57.87;2.70;;;;;;;;;;5071496;28;20455;-73
2022/04/18 09:13:17;;;;;;;58.00;2.30;;;;;;;;;;5071317;28;20447;-73
2022/04/18 09:15:46;;;;;;;58.00;2.50;;;;;;;;;;5071224;28;20439;-73
2022/04/18 09:18:15;;;;;;;57.93;2.50;;;;;;;;;;5070670;28;20913;-73
2022/04/18 09:20:43;;;;;;;57.93;2.53;;;;;;;;;;5071402;28;20447;-73
2022/04/18 09:23:22;;;;;;;58.10;2.40;;;;;;;;;;5071376;28;20493;-73
2022/04/18 09:25:54;;;;;;;59.07;4.00;;;;;;;;;;5071286;28;20474;-73
2022/04/18 09:28:24;;;;;;;58.10;2.50;;;;;;;;;;5070698;28;20502;-73
2022/04/18 09:30:57;;;;;;;58.00;2.50;;;;;;;;;;5071253;28;20443;-73
2022/04/18 09:33:24;;;;;;;58.20;2.50;;;;;;;;;;5071150;28;20939;-72
2022/04/18 09:35:52;;;;;;;62.73;2.83;;;;;;;;;;5071195;28;20944;-72
2022/04/18 09:38:19;;;;;;;57.77;2.43;;;;;;;;;;5073104;28;20466;-72
2022/04/18 09:40:46;;;;;;;58.27;2.40;;;;;;;;;;5074703;28;20530;-72
2022/04/18 09:43:15;;;;;;;57.73;2.40;;;;;;;;;;5074825;28;20443;-73
2022/04/18 09:45:42;;;;;;;58.23;2.60;;;;;;;;;;5074809;28;20575;-74
2022/04/18 09:48:16;;;;;;;57.90;2.43;;;;;;;;;;5074070;28;20571;-73
2022/04/18 09:51:01;;;;;;;57.73;2.40;;;;;;;;;;5074549;28;20448;-73
2022/04/18 09:53:29;;;;;;;58.30;3.03;;;;;;;;;;5074742;28;20462;-74
2022/04/18 09:55:56;;;;;;;58.20;2.30;;;;;;;;;;5073576;28;20811;-73
2022/04/18 09:58:25;;;;;;;57.67;2.30;;;;;;;;;;5073743;28;20460;-73
2022/04/18 10:00:52;;;;;;;57.67;2.40;;;;;;;;;;5074356;28;20453;-73
2022/04/18 10:03:20;;;;;;;57.97;2.27;;;;;;;;;;5074335;28;20445;-74
2022/04/18 10:05:49;;;;;;;57.50;2.30;;;;;;;;;;5074162;28;20439;-74
2022/04/18 10:08:16;;;;;;;58.20;2.47;;;;;;;;;;5073480;28;20529;-74
2022/04/18 10:10:43;;;;;;;58.17;2.60;;;;;;;;;;5074432;28;20504;-75
2022/04/18 10:13:10;;;;;;;57.70;1.90;;;;;;;;;;5074097;28;20962;-74
2022/04/18 10:15:40;;;;;;;57.57;2.07;;;;;;;;;;5074109;28;20983;-74
2022/04/18 10:18:08;;;;;;;57.57;2.40;;;;;;;;;;5073278;28;20525;-74
2022/04/18 10:20:42;;;;;;;57.70;2.40;;;;;;;;;;5074280;28;20447;-72
2022/04/18 10:23:17;;;;;;;57.67;2.03;;;;;;;;;;5074141;28;20474;-73
2022/04/18 10:25:58;;;;;;;57.77;2.00;;;;;;;;;;5073979;28;20457;-72
2022/04/18 10:28:28;;;;;;;57.77;1.90;;;;;;;;;;5072231;28;20567;-73
2022/04/18 10:30:57;;;;;;;57.80;2.30;;;;;;;;;;5073797;28;20533;-72
2022/04/18 10:33:25;;;;;;;57.47;1.80;;;;;;;;;;5073699;28;20534;-73
2022/04/18 10:35:55;;;;;;;57.63;1.80;;;;;;;;;;5073730;28;20443;-73
2022/04/18 10:38:25;;;;;;;57.50;2.03;;;;;;;;;;5073076;28;20960;-73
2022/04/18 10:41:14;;;;;;;57.30;1.70;;;;;;;;;;5073727;28;20966;-73
2022/04/18 10:44:00;;;;;;;64.17;3.77;;;;;;;;;;5073555;28;20450;-73
2022/04/18 10:46:29;;;;;;;57.70;2.23;;;;;;;;;;5073726;28;20448;-72
2022/04/18 10:48:56;;;;;;;57.67;2.20;;;;;;;;;;5071718;28;20579;-72
2022/04/18 10:51:30;;;;;;;57.50;1.70;;;;;;;;;;5073441;28;20462;-72
2022/04/18 10:54:07;;;;;;;57.07;1.73;;;;;;;;;;5073619;28;20479;-72
2022/04/18 10:56:48;;;;;;;57.27;2.00;;;;;;;;;;5073404;28;20478;-74
2022/04/18 10:59:16;;;;;;;57.27;1.73;;;;;;;;;;5072433;28;21008;-74
2022/04/18 11:01:44;;;;;;;57.40;2.00;;;;;;;;;;5073197;28;20538;-74
2022/04/18 11:04:12;;;;;;;56.80;1.87;;;;;;;;;;5073087;28;20449;-74
2022/04/18 11:06:52;;;;;;;57.30;2.20;;;;;;;;;;5073369;28;20466;-73
2022/04/18 11:09:26;;;;;;;57.40;2.13;;;;;;;;;;5072206;28;20466;-74
2022/04/18 11:12:05;;;;;;;58.03;2.10;;;;;;;;;;5072956;28;20960;-74
2022/04/18 11:14:46;;;;;;;57.20;1.70;;;;;;;;;;5073225;28;20443;-73
2022/04/18 11:17:15;;;;;;;57.73;1.90;;;;;;;;;;5072413;28;20489;-74
2022/04/18 11:19:43;;;;;;;57.33;2.10;;;;;;;;;;5072996;28;20474;-73
2022/04/18 11:22:31;;;;;;;57.50;2.20;;;;;;;;;;5072855;28;20447;-73
2022/04/18 11:25:00;;;;;;;57.33;1.87;;;;;;;;;;5072693;28;20522;-70
2022/04/18 11:27:35;;;;;;;57.00;2.00;;;;;;;;;;5072264;28;20472;-75
2022/04/18 11:30:04;;;;;;;57.07;1.97;;;;;;;;;;5072768;28;20453;-74
2022/04/18 11:32:33;;;;;;;57.80;2.20;;;;;;;;;;5072614;28;20796;-74
2022/04/18 11:35:01;;;;;;;57.17;1.70;;;;;;;;;;5072579;28;20628;-75
2022/04/18 11:37:29;;;;;;;59.10;2.00;;;;;;;;;;5072252;28;21111;-75
2022/04/18 11:39:57;;;;;;;58.27;2.10;;;;;;;;;;5072621;28;20473;-75
2022/04/18 11:42:25;;;;;;;57.10;1.80;;;;;;;;;;5072515;28;20539;-74
2022/04/18 11:44:53;;;;;;;56.97;1.80;;;;;;;;;;5072291;28;20486;-75
2022/04/18 11:47:22;;;;;;;56.97;1.73;;;;;;;;;;5071816;28;20451;-74
2022/04/18 11:49:55;;;;;;;56.97;1.90;;;;;;;;;;5072549;28;20483;-74
2022/04/18 11:52:23;;;;;;;57.97;1.90;;;;;;;;;;5072491;28;20451;-75
2022/04/18 11:54:57;;;;;;;56.70;1.83;;;;;;;;;;5072479;28;20554;-75
2022/04/18 11:57:24;;;;;;;56.90;1.80;;;;;;;;;;5071619;28;21046;-74
2022/04/18 11:59:52;;;;;;;57.70;1.93;;;;;;;;;;5071781;28;20477;-75
2022/04/18 12:07:53;;;;;;;56.93;1.57;;;;;;;;;;5071556;28;20509;-74
2022/04/18 12:10:23;;;;;;;56.90;1.83;;;;;;;;;;5072005;28;20483;-74
2022/04/18 12:12:50;;;;;;;56.90;1.90;;;;;;;;;;5071915;28;20511;-74
2022/04/18 12:15:18;;;;;;;57.73;1.90;;;;;;;;;;5072223;28;20538;-74
2022/04/18 12:17:45;;;;;;;56.67;1.70;;;;;;;;;;5071212;28;20569;-75
2022/04/18 12:20:26;;;;;;;56.97;1.90;;;;;;;;;;5072038;28;20879;-74
2022/04/18 12:22:54;;;;;;;57.40;2.33;;;;;;;;;;5071833;28;20867;-74
2022/04/18 12:25:22;;;;;;;57.00;1.90;;;;;;;;;;5071740;28;20820;-75
2022/04/18 12:27:49;;;;;;;56.80;1.70;;;;;;;;;;5071127;28;20810;-75
2022/04/18 12:30:17;;;;;;;56.90;1.93;;;;;;;;;;5071957;28;20443;-75
2022/04/18 12:32:47;;;;;;;56.70;1.60;;;;;;;;;;5071841;28;20527;-74
2022/04/18 12:35:14;;;;;;;56.87;1.90;;;;;;;;;;5071806;28;20447;-74
2022/04/18 12:37:47;;;;;;;56.77;2.00;;;;;;;;;;5070791;28;20483;-75
2022/04/18 12:40:15;;;;;;;56.47;1.63;;;;;;;;;;5071695;28;20447;-74
2022/04/18 12:42:50;;;;;;;56.57;1.80;;;;;;;;;;5071704;28;20486;-74
2022/04/18 12:45:17;;;;;;;57.57;2.20;;;;;;;;;;5071820;28;20469;-74
2022/04/18 12:47:44;;;;;;;56.63;1.73;;;;;;;;;;5070862;28;20829;-74
2022/04/18 12:50:13;;;;;;;56.77;2.03;;;;;;;;;;5071490;28;20447;-75
2022/04/18 12:52:50;;;;;;;56.40;1.60;;;;;;;;;;5071777;28;20458;-74
2022/04/18 12:55:17;;;;;;;56.97;1.60;;;;;;;;;;5071762;28;20457;-74
2022/04/18 12:57:49;;;;;;;56.53;1.70;;;;;;;;;;5070802;28;20487;-74
2022/04/18 13:00:17;;;;;;;56.53;1.50;;;;;;;;;;5071576;28;20497;-75
2022/04/18 13:02:57;;;;;;;57.10;2.43;;;;;;;;;;5071414;28;20450;-75
2022/04/18 13:05:28;;;;;;;56.57;1.70;;;;;;;;;;5071746;28;20542;-75
2022/04/18 13:07:59;;;;;;;56.97;1.93;;;;;;;;;;5070908;28;20443;-74
2022/04/18 13:10:30;;;;;;;56.70;1.70;;;;;;;;;;5071619;28;20451;-74
2022/04/18 13:13:00;;;;;;;56.90;1.97;;;;;;;;;;5074103;28;20535;-75
2022/04/18 13:15:28;;;;;;;56.43;1.60;;;;;;;;;;5075279;28;21013;-74
2022/04/18 13:17:59;;;;;;;57.30;1.97;;;;;;;;;;5074409;28;20579;-74
2022/04/18 13:20:27;;;;;;;57.00;1.80;;;;;;;;;;5075332;28;20443;-74
2022/04/18 13:22:54;;;;;;;57.20;1.73;;;;;;;;;;5075079;28;20498;-74
2022/04/18 13:25:22;;;;;;;56.87;1.60;;;;;;;;;;5075230;28;20447;-74
2022/04/18 13:27:50;;;;;;;57.17;1.63;;;;;;;;;;5074225;28;20534;-74
2022/04/18 13:30:17;;;;;;;56.60;1.50;;;;;;;;;;5075317;28;20478;-74
2022/04/18 13:32:44;;;;;;;56.70;1.77;;;;;;;;;;5075096;28;20443;-75
2022/04/18 13:35:11;;;;;;;56.67;1.70;;;;;;;;;;5075090;28;20831;-74
2022/04/18 13:37:38;;;;;;;56.80;1.70;;;;;;;;;;5074059;28;20479;-74
2022/04/18 13:40:06;;;;;;;56.77;1.80;;;;;;;;;;5074775;28;20443;-74
2022/04/18 13:42:35;;;;;;;56.63;1.60;;;;;;;;;;5075152;28;20543;-74
2022/04/18 13:45:02;;;;;;;56.73;1.73;;;;;;;;;;5074767;28;20447;-74
2022/04/18 13:47:29;;;;;;;56.70;1.60;;;;;;;;;;5074084;28;20531;-74
2022/04/18 13:49:58;;;;;;;56.90;1.87;;;;;;;;;;5074532;28;20937;-74
2022/04/18 13:52:25;;;;;;;56.73;1.80;;;;;;;;;;5074507;28;20546;-74
2022/04/18 13:54:52;;;;;;;56.90;1.70;;;;;;;;;;5074442;28;20952;-74
2022/04/18 13:57:19;;;;;;;56.60;1.70;;;;;;;;;;5073858;28;20491;-74
2022/04/18 13:59:48;;;;;;;56.63;1.80;;;;;;;;;;5074584;28;20471;-74
2022/04/18 14:02:15;;;;;;;56.83;1.70;;;;;;;;;;5074530;28;20455;-75
2022/04/18 14:04:43;;;;;;;56.93;1.90;;;;;;;;;;5074453;28;20530;-74
2022/04/18 14:07:10;;;;;;;56.53;1.60;;;;;;;;;;5073596;28;20448;-75
2022/04/18 14:09:37;;;;;;;57.07;1.87;;;;;;;;;;5074207;28;20475;-74
2022/04/18 14:12:04;;;;;;;56.77;1.80;;;;;;;;;;5074156;28;20454;-74
2022/04/18 14:20:21;;;;;;;56.67;1.80;;;;;;;;;;5053514;28;20432;-74
2022/04/18 14:22:49;;;;;;;57.43;1.97;;;;;;;;;;5074073;28;20871;-74
2022/04/18 14:25:16;;;;;;;57.07;1.50;;;;;;;;;;5074002;28;20979;-75
2022/04/18 14:27:43;;;;;;;57.17;1.90;;;;;;;;;;5073165;28;20516;-74
2022/04/18 14:30:13;;;;;;;57.27;1.83;;;;;;;;;;5073864;28;20452;-74
2022/04/18 14:32:41;;;;;;;57.13;1.90;;;;;;;;;;5073939;28;20459;-74
2022/04/18 14:35:09;;;;;;;57.90;2.10;;;;;;;;;;5074168;28;20943;-74
2022/04/18 14:37:37;;;;;;;57.37;1.83;;;;;;;;;;5073192;28;20487;-74
2022/04/18 14:40:05;;;;;;;57.77;1.90;;;;;;;;;;5073885;28;20471;-75
2022/04/18 14:42:32;;;;;;;57.33;1.67;;;;;;;;;;5073679;28;21039;-73
2022/04/18 14:44:59;;;;;;;57.23;1.70;;;;;;;;;;5073638;28;20453;-73
2022/04/18 14:47:26;;;;;;;57.30;1.90;;;;;;;;;;5072873;28;20935;-74
2022/04/18 14:49:55;;;;;;;57.77;1.90;;;;;;;;;;5073522;28;20566;-74
2022/04/18 14:52:23;;;;;;;57.57;1.90;;;;;;;;;;5073593;28;20447;-73
2022/04/18 14:54:50;;;;;;;60.47;2.40;;;;;;;;;;5073483;28;20444;-74
2022/04/18 14:57:18;;;;;;;57.47;2.10;;;;;;;;;;5072492;28;20943;-73
2022/04/18 14:59:47;;;;;;;57.30;1.80;;;;;;;;;;5073519;28;20508;-73
2022/04/18 15:02:15;;;;;;;57.50;1.90;;;;;;;;;;5073184;28;20447;-75
2022/04/18 15:04:42;;;;;;;58.23;2.20;;;;;;;;;;5073351;28;20439;-73
2022/04/18 15:07:11;;;;;;;57.07;1.93;;;;;;;;;;5072860;28;20978;-74
2022/04/18 15:09:38;;;;;;;57.23;1.63;;;;;;;;;;5073084;28;20494;-73
2022/04/18 15:12:06;;;;;;;57.57;1.80;;;;;;;;;;5073546;28;20531;-74